Latest Coastal Weather Observations for Redcliffe

IDQ60701

Issued at 7:51 pm EST Thursday 21 June 2018 (issued every 10 minutes, with the page automatically refreshed every 10 minutes)

About coastal observations | Map of coastal stations | Coastal observations for QLD | Marine services | Other Formats
Station Details ID: 040958 Name: REDCLIFFE Lat: -27.22 Lon: 153.09 Height: 12.6 m
Data from the previous 72 hours. | See also: Recent months at Redcliffe
Date/Time
EST
Temp
°C
Wind Pressure Rain since
9am
mm
Weather Cloud Vis
km
Sea
Height
m
Swell
Dir  Spd
kts
Gust
kts
hPa Trend Height
m
Period
s
Dir
21/07:30pm 16.7 S 10 12 1025.2 - 0.0 - - - - - - -
21/07:00pm 17.0 S 11 13 1025.0 - 0.0 - - - - - - -
21/06:30pm 17.0 SSE 12 14 1025.0 - 0.0 - - - - - - -
21/06:00pm 17.3 SSE 13 15 1024.5 - 0.0 - - - - - - -
21/05:30pm 17.5 SSE 13 15 1024.2 - 0.0 - - - - - - -
21/05:00pm 17.6 SSE 13 16 1023.9 - 0.0 - - - - - - -
21/04:30pm 18.3 SE 13 16 1023.6 - 0.0 - - - - - - -
21/04:00pm 18.6 SE 12 14 1023.5 - 0.0 - - - - - - -
21/03:30pm 19.0 SE 12 15 1023.4 - 0.0 - - - - - - -
21/03:00pm 19.4 SE 12 14 1023.3 - 0.0 - - - - - - -
21/02:30pm 19.3 SE 10 11 1023.2 - 0.0 - - - - - - -
21/02:00pm 20.0 SE 9 10 1023.2 - 0.0 - - - - - - -
21/01:30pm 20.6 SSE 5 6 1023.2 - 0.0 - - - - - - -
21/01:00pm 20.5 SSE 7 9 1023.4 - 0.0 - - - - - - -
21/12:30pm 19.8 SSE 8 10 1023.8 - 0.0 - - - - - - -
21/12:00pm 20.4 S 8 9 1024.2 - 0.0 - - - - - - -
21/11:30am 19.8 S 10 14 1024.6 - 0.0 - - - - - - -
21/11:00am 19.4 S 12 14 1024.9 - 0.0 - - - - - - -
21/10:30am 19.6 SSW 10 14 1025.1 - 0.0 - - - - - - -
21/10:00am 18.9 SW 11 15 1025.1 - 0.0 - - - - - - -
21/09:30am 17.5 SSW 10 16 1025.2 - 0.0 - - - - - - -
21/09:00am 16.0 - - - 1025.3 - 0.0 - - - - - - -
21/08:30am 14.9 - - - 1025.0 - 0.0 - - - - - - -
21/08:00am 13.7 - - - 1024.6 - 0.0 - - - - - - -
21/07:30am 12.3 - - - 1024.4 - 0.0 - - - - - - -
21/07:00am 11.1 - - - 1024.2 - 0.0 - - - - - - -
21/06:30am 11.0 - - - 1024.0 - 0.0 - - - - - - -
21/06:00am 11.9 - - - 1023.6 - 0.0 - - - - - - -
21/05:30am 12.1 - - - 1023.2 - 0.0 - - - - - - -
21/05:00am 12.4 - - - 1022.9 - 0.0 - - - - - - -
21/04:30am 11.9 - - - 1022.7 - 0.0 - - - - - - -
21/04:00am 11.8 - - - 1022.8 - 0.0 - - - - - - -
21/03:30am 11.8 - - - 1022.9 - 0.0 - - - - - - -
21/03:00am 11.8 - - - 1023.2 - 0.0 - - - - - - -
21/02:30am 12.2 - - - 1023.3 - 0.0 - - - - - - -
21/02:00am 11.7 - - - 1023.5 - 0.0 - - - - - - -
21/01:30am 11.4 - - - 1023.5 - 0.0 - - - - - - -
21/01:00am 10.9 - - - 1023.5 - 0.0 - - - - - - -
21/12:30am 11.9 - - - 1023.7 - 0.0 - - - - - - -
21/12:00am 12.1 - - - 1023.7 - 0.0 - - - - - - -
 
Date/Time
EST
Temp
°C
Wind Pressure Rain since
9am
mm
Weather Cloud Vis
km
Sea
Height
m
Swell
Dir  Spd
kts
Gust
kts
hPa Trend Height
m
Period
s
Dir
20/11:30pm 12.4 - - - 1023.8 - 0.0 - - - - - - -
20/11:00pm 12.8 - - - 1023.7 - 0.0 - - - - - - -
20/10:30pm 13.0 SW 6 7 1023.5 - 0.0 - - - - - - -
20/10:00pm 14.0 SW 7 8 1023.6 - 0.0 - - - - - - -
20/09:30pm 14.9 SW 7 10 1023.6 - 0.0 - - - - - - -
20/09:00pm 15.4 SSW 8 14 1023.6 - 0.0 - - - - - - -
20/08:30pm 15.9 SSW 9 13 1023.7 - 0.0 - - - - - - -
20/08:00pm 16.0 SSW 7 10 1023.8 - 0.0 - - - - - - -
20/07:30pm 16.3 SSW 9 13 1023.5 - 0.0 - - - - - - -
20/07:00pm 17.1 SSW 5 8 1023.5 - 0.0 - - - - - - -
20/06:30pm 17.0 SSW 5 6 1022.7 - 0.0 - - - - - - -
20/06:00pm 17.4 SW 5 6 1022.5 - 0.0 - - - - - - -
20/05:30pm 17.6 S 5 6 1021.9 - 0.0 - - - - - - -
20/05:00pm 18.5 S 5 6 1021.7 - 0.0 - - - - - - -
20/04:30pm 19.0 SSE 8 9 1021.5 - 0.0 - - - - - - -
20/04:00pm 19.0 SSE 8 10 1021.3 - 0.0 - - - - - - -
20/03:30pm 19.2 S 7 9 1021.1 - 0.0 - - - - - - -
20/03:00pm 19.9 S 7 10 1020.7 - 0.0 - - - - - - -
20/02:30pm 20.2 SSE 6 7 1020.7 - 0.0 - - - - - - -
20/02:00pm 19.5 SE 6 7 1020.8 - 0.0 - - - - - - -
20/01:30pm 20.6 SSE 8 9 1020.6 - 0.0 - - - - - - -
20/01:00pm 20.7 S 10 14 1020.5 - 0.0 - - - - - - -
20/12:30pm 19.6 S 10 15 1020.8 - 0.0 - - - - - - -
20/12:00pm 20.1 SSW 10 14 1021.2 - 0.0 - - - - - - -
20/11:30am 19.3 SSW 10 16 1021.8 - 0.0 - - - - - - -
20/11:00am 19.6 SSW 10 15 1022.0 - 0.0 - - - - - - -
20/10:30am 18.6 SW 10 14 1022.3 - 0.0 - - - - - - -
20/10:00am 17.8 SSW 11 16 1022.5 - 0.0 - - - - - - -
20/09:30am 17.2 - - - 1022.4 - 0.0 - - - - - - -
20/09:00am 16.0 - - - 1022.3 - 0.0 - - - - - - -
20/08:30am 14.4 - - - 1022.2 - 0.0 - - - - - - -
20/08:00am 12.0 - - - 1021.9 - 0.0 - - - - - - -
20/07:30am 10.7 - - - 1021.8 - 0.0 - - - - - - -
20/07:00am 9.6 - - - 1021.7 - 0.0 - - - - - - -
20/06:30am 8.7 - - - 1021.2 - 0.0 - - - - - - -
20/06:00am 9.4 - - - 1021.2 - 0.0 - - - - - - -
20/05:30am 9.5 - - - 1020.9 - 0.0 - - - - - - -
20/05:00am 9.9 - - - 1020.4 - 0.0 - - - - - - -
20/04:30am 9.7 - - - 1020.5 - 0.0 - - - - - - -
20/04:00am 9.0 - - - 1020.5 - 0.0 - - - - - - -
20/03:30am 9.6 - - - 1020.6 - 0.0 - - - - - - -
20/03:00am 9.7 - - - 1020.1 - 0.0 - - - - - - -
20/02:30am 9.9 - - - 1020.0 - 0.0 - - - - - - -
20/02:00am 9.9 - - - 1020.2 - 0.0 - - - - - - -
20/01:30am 9.9 - - - 1019.8 - 0.0 - - - - - - -
20/01:00am 10.9 - - - 1019.8 - 0.0 - - - - - - -
20/12:30am 11.0 - - - 1019.8 - 0.0 - - - - - - -
20/12:00am 11.3 - - - 1019.8 - 0.0 - - - - - - -
 
Date/Time
EST
Temp
°C
Wind Pressure Rain since
9am
mm
Weather Cloud Vis
km
Sea
Height
m
Swell
Dir  Spd
kts
Gust
kts
hPa Trend Height
m
Period
s
Dir
19/11:30pm 11.6 - - - 1019.9 - 0.0 - - - - - - -
19/11:00pm 11.5 - - - 1019.7 - 0.0 - - - - - - -
19/10:30pm 11.6 - - - 1019.6 - 0.0 - - - - - - -
19/10:00pm 12.2 - - - 1019.7 - 0.0 - - - - - - -
19/09:30pm 13.0 - - - 1019.6 - 0.0 - - - - - - -
19/09:00pm 13.0 - - - 1019.4 - 0.0 - - - - - - -
19/08:30pm 13.3 - - - 1019.1 - 0.0 - - - - - - -
19/08:00pm 13.5 - - - 1018.9 - 0.0 - - - - - - -
19/07:30pm 13.1 SW 7 10 1018.8 - 0.0 - - - - - - -
19/07:00pm 13.9 SW 6 8 1018.5 - 0.0 - - - - - - -
19/06:30pm 14.4 SW 8 11 1018.0 - 0.0 - - - - - - -
19/06:00pm 15.4 WSW 8 11 1017.8 - 0.0 - - - - - - -
19/05:30pm 16.0 WSW 7 12 1017.3 - 0.0 - - - - - - -
19/05:00pm 16.7 WSW 7 14 1017.1 - 0.0 - - - - - - -
19/04:30pm 17.6 W 9 16 1016.9 - 0.0 - - - - - - -
19/04:00pm 18.0 WSW 12 19 1016.8 - 0.0 - - - - - - -
19/03:30pm 18.5 WSW 12 19 1016.6 - 0.0 - - - - - - -
19/03:13pm 18.4 W 15 26 1016.4 - 0.0 - - - - - - -
19/03:00pm 18.3 W 12 18 1016.2 - 0.0 - - - - - - -
19/02:30pm 18.7 W 15 23 1016.0 - 0.0 - - - - - - -
19/02:00pm 18.6 W 12 21 1016.3 - 0.0 - - - - - - -
19/01:30pm 18.9 WSW 9 15 1016.5 - 0.0 - - - - - - -
19/01:00pm 18.1 W 13 20 1016.8 - 0.0 - - - - - - -
19/12:30pm 18.2 W 14 19 1017.0 - 0.0 - - - - - - -
19/12:00pm 17.6 WSW 15 19 1017.6 - 0.0 - - - - - - -
19/11:30am 17.9 SW 15 19 1018.3 - 0.0 - - - - - - -
19/11:00am 17.4 WSW 13 20 1018.8 - 0.0 - - - - - - -
19/10:30am 17.3 WSW 12 16 1019.0 - 0.0 - - - - - - -
19/10:00am 16.8 WSW 12 18 1019.0 - 0.0 - - - - - - -
19/09:30am 15.6 - - - 1018.8 - 0.0 - - - - - - -
19/09:00am 14.6 - - - 1018.6 - 0.0 - - - - - - -
19/08:30am 13.3 - - - 1018.5 - 0.0 - - - - - - -
19/08:00am 12.0 - - - 1018.7 - 0.0 - - - - - - -
19/07:30am 11.0 - - - 1018.6 - 0.0 - - - - - - -
19/07:00am 10.0 - - - 1018.0 - 0.0 - - - - - - -
19/06:30am 9.5 - - - 1018.1 - 0.0 - - - - - - -
19/06:00am 9.6 - - - 1018.1 - 0.0 - - - - - - -
19/05:30am 9.7 - - - 1017.9 - 0.0 - - - - - - -
19/05:00am 10.3 - - - 1017.8 - 0.0 - - - - - - -
19/04:30am 10.8 - - - 1017.7 - 0.0 - - - - - - -
19/04:00am 11.4 - - - 1017.6 - 0.0 - - - - - - -
19/03:30am 11.3 - - - 1017.6 - 0.0 - - - - - - -
19/03:00am 11.9 - - - 1017.9 - 0.0 - - - - - - -
19/02:30am 11.9 - - - 1018.1 - 0.0 - - - - - - -
19/02:00am 12.1 - - - 1018.2 - 0.0 - - - - - - -
19/01:30am 12.2 - - - 1018.1 - 0.0 - - - - - - -
19/01:00am 12.7 - - - 1018.1 - 0.0 - - - - - - -
19/12:30am 12.9 - - - 1018.3 - 0.0 - - - - - - -
19/12:00am 13.0 - - - 1018.4 - 0.0 - - - - - - -
 
Date/Time
EST
Temp
°C
Wind Pressure Rain since
9am
mm
Weather Cloud Vis
km
Sea
Height
m
Swell
Dir  Spd
kts
Gust
kts
hPa Trend Height
m
Period
s
Dir
18/11:30pm 13.3 - - - 1018.5 - 0.0 - - - - - - -
18/11:00pm 13.4 - - - 1018.5 - 0.0 - - - - - - -
18/10:30pm 13.2 - - - 1018.8 - 0.0 - - - - - - -
18/10:00pm 13.1 - - - 1018.8 - 0.0 - - - - - - -
18/09:30pm 13.6 - - - 1018.5 - 0.0 - - - - - - -
18/09:00pm 13.7 - - - 1018.8 - 0.0 - - - - - - -
18/08:30pm 13.6 - - - 1018.9 - 0.0 - - - - - - -
18/08:00pm 14.0 - - - 1018.7 - 0.0 - - - - - - -

Other Formats:

Comma delimited format used in spreadsheet applications
http://www.bom.gov.au/fwo/IDQ60701/IDQ60701.95591.axf

JavaScript Object Notation format (JSON) in row-major order
http://www.bom.gov.au/fwo/IDQ60701/IDQ60701.95591.json